Time;durP1;ratioP1;P1;durP2;ratioP2;P2;SDS_P1;SDS_P2;PMS_P1;PMS_P2;Temp;Humidity;BMP_temperature;BMP_pressure;BME280_temperature;BME280_humidity;BME280_pressure;Samples;Min_cycle;Max_cycle;Signal;HPM_P1;HPM_P2
2023/05/20 00:00:23;;;;;;;;;;;;;;;;;;5037294;28;19971;-14
2023/05/20 00:02:49;;;;;;;;;;;;;;;;;;5036929;28;19963;-13
2023/05/20 00:05:15;;;;;;;;;;;;;;;;;;5037472;28;19917;-15
2023/05/20 00:07:41;;;;;;;;;;;;;;;;;;5037153;28;19916;-15
2023/05/20 00:10:07;;;;;;;;;;;;;;;;;;5037363;28;19910;-14
2023/05/20 00:12:34;;;;;;;;;;;;;;;;;;5036975;28;19963;-14
2023/05/20 00:15:00;;;;;;;;;;;;;;;;;;5037035;28;19920;-14
2023/05/20 00:17:27;;;;;;;;;;;;;;;;;;5036910;28;19917;-14
2023/05/20 00:19:53;;;;;;;;;;;;;;;;;;5036880;28;19913;-14
2023/05/20 00:22:19;;;;;;;;;;;;;;;;;;5036849;28;19924;-14
2023/05/20 00:24:45;;;;;;;;;;;;;;;;;;5036781;28;20260;-14
2023/05/20 00:27:11;;;;;;;;;;;;;;;;;;5036822;28;19909;-14
2023/05/20 00:29:36;;;;;;;;;;;;;;;;;;5036633;28;19916;-14
2023/05/20 00:32:02;;;;;;;;;;;;;;;;;;5036609;28;19909;-14
2023/05/20 00:34:28;;;;;;;;;;;;;;;;;;5037167;28;20350;-14
2023/05/20 00:36:55;;;;;;;;;;;;;;;;;;5037098;28;20283;-14
2023/05/20 00:39:20;;;;;;;;;;;;;;;;;;5036612;28;19920;-14
2023/05/20 00:41:46;;;;;;;;;;;;;;;;;;5036469;28;19909;-14
2023/05/20 00:44:12;;;;;;;;;;;;;;;;;;5036967;28;19909;-13
2023/05/20 00:46:38;;;;;;;;;;;;;;;;;;5036412;28;20344;-13
2023/05/20 00:49:04;;;;;;;;;;;;;;;;;;5035414;28;19913;-13
2023/05/20 00:51:30;;;;;;;;;;;;;;;;;;5036117;28;19958;-14
2023/05/20 00:53:56;;;;;;;;;;;;;;;;;;5036192;28;19910;-14
2023/05/20 00:56:22;;;;;;;;;;;;;;;;;;5036402;28;19913;-14
2023/05/20 00:58:48;;;;;;;;;;;;;;;;;;5036228;28;20031;-14
2023/05/20 01:01:14;;;;;;;;;;;;;;;;;;5036152;28;19916;-13
2023/05/20 01:03:40;;;;;;;;;;;;;;;;;;5035881;28;19932;-15
2023/05/20 01:06:06;;;;;;;;;;;;;;;;;;5036281;28;19924;-14
2023/05/20 01:08:33;;;;;;;;;;;;;;;;;;5034999;28;19913;-14
2023/05/20 01:10:58;;;;;;;;;;;;;;;;;;5036025;28;19919;-14
2023/05/20 01:13:24;;;;;;;;;;;;;;;;;;5035867;28;20000;-14
2023/05/20 01:15:52;;;;;;;;;;;;;;;;;;5035034;28;20217;-13
2023/05/20 01:18:19;;;;;;;;;;;;;;;;;;5035828;28;19992;-13
2023/05/20 01:20:46;;;;;;;;;;;;;;;;;;5036037;28;19909;-13
2023/05/20 01:23:11;;;;;;;;;;;;;;;;;;5035714;28;19919;-14
2023/05/20 01:25:37;;;;;;;;;;;;;;;;;;5035699;28;20247;-14
2023/05/20 01:28:03;;;;;;;;;;;;;;;;;;5035664;28;19932;-14
2023/05/20 01:30:29;;;;;;;;;;;;;;;;;;5035883;28;19919;-13
2023/05/20 01:32:55;;;;;;;;;;;;;;;;;;5035459;28;20315;-14
2023/05/20 01:35:21;;;;;;;;;;;;;;;;;;5035549;28;19917;-14
2023/05/20 01:37:47;;;;;;;;;;;;;;;;;;5035404;28;19971;-14
2023/05/20 01:40:13;;;;;;;;;;;;;;;;;;5035027;28;19916;-13
2023/05/20 01:42:39;;;;;;;;;;;;;;;;;;5035455;28;19909;-14
2023/05/20 01:45:05;;;;;;;;;;;;;;;;;;5035309;28;20240;-13
2023/05/20 01:47:31;;;;;;;;;;;;;;;;;;5035380;28;19909;-13
2023/05/20 01:49:57;;;;;;;;;;;;;;;;;;5035311;28;19909;-14
2023/05/20 01:52:23;;;;;;;;;;;;;;;;;;5035205;28;19909;-14
2023/05/20 01:54:52;;;;;;;;;;;;;;;;;;5035166;28;19909;-14
2023/05/20 01:57:18;;;;;;;;;;;;;;;;;;5035147;28;19939;-14
2023/05/20 01:59:44;;;;;;;;;;;;;;;;;;5035094;28;19913;-14
2023/05/20 02:02:10;;;;;;;;;;;;;;;;;;5035260;28;19909;-15
2023/05/20 02:04:36;;;;;;;;;;;;;;;;;;5033908;28;20352;-14
2023/05/20 02:07:02;;;;;;;;;;;;;;;;;;5035007;28;20304;-14
2023/05/20 02:09:28;;;;;;;;;;;;;;;;;;5034958;28;20302;-13
2023/05/20 02:11:54;;;;;;;;;;;;;;;;;;5034916;28;19916;-14
2023/05/20 02:14:20;;;;;;;;;;;;;;;;;;5035446;28;19917;-13
2023/05/20 02:16:46;;;;;;;;;;;;;;;;;;5034799;28;19925;-14
2023/05/20 02:19:12;;;;;;;;;;;;;;;;;;5034909;28;19909;-13
2023/05/20 02:21:39;;;;;;;;;;;;;;;;;;5034851;28;19909;-14
2023/05/20 02:24:04;;;;;;;;;;;;;;;;;;5034817;28;19913;-14
2023/05/20 02:26:30;;;;;;;;;;;;;;;;;;5033831;28;19919;-13
2023/05/20 02:28:56;;;;;;;;;;;;;;;;;;5034757;28;19909;-14
2023/05/20 02:31:22;;;;;;;;;;;;;;;;;;5034971;28;19975;-12
2023/05/20 02:33:48;;;;;;;;;;;;;;;;;;5034641;28;19956;-14
2023/05/20 02:36:16;;;;;;;;;;;;;;;;;;5034610;28;19913;-13
2023/05/20 02:38:41;;;;;;;;;;;;;;;;;;5035274;28;19909;-14
2023/05/20 02:41:07;;;;;;;;;;;;;;;;;;5034913;28;19909;-14
2023/05/20 02:43:35;;;;;;;;;;;;;;;;;;5034685;28;19909;-14
2023/05/20 02:46:01;;;;;;;;;;;;;;;;;;5034974;28;19909;-13
2023/05/20 02:48:27;;;;;;;;;;;;;;;;;;5034611;28;19920;-14
2023/05/20 02:50:53;;;;;;;;;;;;;;;;;;5034861;28;19910;-14
2023/05/20 02:53:19;;;;;;;;;;;;;;;;;;5037672;28;19909;-13
2023/05/20 02:55:48;;;;;;;;;;;;;;;;;;5039040;28;19971;-14
2023/05/20 02:58:14;;;;;;;;;;;;;;;;;;5038458;28;19913;-14
2023/05/20 03:00:40;;;;;;;;;;;;;;;;;;5038464;28;19909;-14
2023/05/20 03:03:06;;;;;;;;;;;;;;;;;;5037183;28;19924;-14
2023/05/20 03:05:36;;;;;;;;;;;;;;;;;;5037491;28;20256;-14
2023/05/20 03:08:02;;;;;;;;;;;;;;;;;;5038391;28;19979;-13
2023/05/20 03:10:28;;;;;;;;;;;;;;;;;;5038417;28;19920;-14
2023/05/20 03:12:54;;;;;;;;;;;;;;;;;;5038417;28;20256;-14
2023/05/20 03:15:20;;;;;;;;;;;;;;;;;;5038456;28;20348;-14
2023/05/20 03:17:46;;;;;;;;;;;;;;;;;;5037095;28;19924;-14
2023/05/20 03:20:12;;;;;;;;;;;;;;;;;;5038317;28;20058;-13
2023/05/20 03:22:38;;;;;;;;;;;;;;;;;;5037960;28;19920;-14
2023/05/20 03:25:04;;;;;;;;;;;;;;;;;;5037978;28;20019;-14
2023/05/20 03:27:30;;;;;;;;;;;;;;;;;;5038271;28;19909;-14
2023/05/20 03:29:56;;;;;;;;;;;;;;;;;;5037922;28;20004;-14
2023/05/20 03:32:22;;;;;;;;;;;;;;;;;;5038348;28;20352;-14
2023/05/20 03:34:48;;;;;;;;;;;;;;;;;;5038062;28;19920;-14
2023/05/20 03:37:14;;;;;;;;;;;;;;;;;;5037722;28;19924;-13
2023/05/20 03:39:40;;;;;;;;;;;;;;;;;;5038237;28;19917;-15
2023/05/20 03:42:06;;;;;;;;;;;;;;;;;;5037635;28;19909;-14
2023/05/20 03:44:32;;;;;;;;;;;;;;;;;;5037675;28;20245;-14
2023/05/20 03:46:58;;;;;;;;;;;;;;;;;;5037581;28;19958;-14
2023/05/20 03:49:24;;;;;;;;;;;;;;;;;;5037543;28;19936;-14
2023/05/20 03:51:50;;;;;;;;;;;;;;;;;;5037420;28;20009;-13
2023/05/20 03:54:16;;;;;;;;;;;;;;;;;;5038561;28;19913;-14
2023/05/20 03:56:42;;;;;;;;;;;;;;;;;;5037283;28;19913;-14
2023/05/20 03:59:09;;;;;;;;;;;;;;;;;;5037392;28;19971;-14
2023/05/20 04:01:36;;;;;;;;;;;;;;;;;;5037615;28;19909;-13
2023/05/20 04:04:02;;;;;;;;;;;;;;;;;;5035295;28;19921;-14
2023/05/20 04:06:28;;;;;;;;;;;;;;;;;;5037219;28;20360;-14
2023/05/20 04:08:53;;;;;;;;;;;;;;;;;;5037164;28;19909;-14
2023/05/20 04:11:20;;;;;;;;;;;;;;;;;;5037647;28;19959;-14
2023/05/20 04:13:46;;;;;;;;;;;;;;;;;;5037553;28;19913;-14
2023/05/20 04:16:12;;;;;;;;;;;;;;;;;;5037259;28;20008;-13
2023/05/20 04:18:39;;;;;;;;;;;;;;;;;;5036995;28;19910;-14
2023/05/20 04:21:06;;;;;;;;;;;;;;;;;;5037058;28;20027;-14
2023/05/20 04:23:32;;;;;;;;;;;;;;;;;;5036861;28;19953;-14
2023/05/20 04:26:01;;;;;;;;;;;;;;;;;;5036879;28;19910;-13
2023/05/20 04:28:27;;;;;;;;;;;;;;;;;;5037395;28;19959;-14
2023/05/20 04:30:53;;;;;;;;;;;;;;;;;;5036788;28;19912;-14
2023/05/20 04:33:19;;;;;;;;;;;;;;;;;;5036736;28;19944;-13
2023/05/20 04:35:47;;;;;;;;;;;;;;;;;;5036722;28;20093;-13
2023/05/20 04:38:13;;;;;;;;;;;;;;;;;;5036619;28;19924;-14
2023/05/20 04:40:39;;;;;;;;;;;;;;;;;;5036593;28;19909;-14
2023/05/20 04:43:05;;;;;;;;;;;;;;;;;;5036510;28;19944;-16
2023/05/20 04:45:32;;;;;;;;;;;;;;;;;;5036814;28;20004;-15
2023/05/20 04:47:58;;;;;;;;;;;;;;;;;;5036762;28;19995;-15
2023/05/20 04:50:24;;;;;;;;;;;;;;;;;;5036703;28;19952;-15
2023/05/20 04:52:50;;;;;;;;;;;;;;;;;;5036312;28;19917;-16
2023/05/20 04:55:17;;;;;;;;;;;;;;;;;;5036355;28;19920;-16
2023/05/20 04:57:43;;;;;;;;;;;;;;;;;;5036702;28;19913;-16
2023/05/20 05:00:09;;;;;;;;;;;;;;;;;;5036241;28;19917;-15
2023/05/20 05:02:35;;;;;;;;;;;;;;;;;;5036422;28;20222;-16
2023/05/20 05:05:01;;;;;;;;;;;;;;;;;;5035982;28;19921;-16
2023/05/20 05:07:27;;;;;;;;;;;;;;;;;;5036361;28;20012;-16
2023/05/20 05:09:53;;;;;;;;;;;;;;;;;;5036010;28;20264;-15
2023/05/20 05:12:19;;;;;;;;;;;;;;;;;;5036221;28;20378;-15
2023/05/20 05:14:45;;;;;;;;;;;;;;;;;;5034771;28;19932;-15
2023/05/20 05:17:11;;;;;;;;;;;;;;;;;;5035073;28;20241;-16
2023/05/20 05:19:37;;;;;;;;;;;;;;;;;;5036371;28;20332;-15
2023/05/20 05:22:03;;;;;;;;;;;;;;;;;;5035747;28;20255;-15
2023/05/20 05:24:29;;;;;;;;;;;;;;;;;;5036083;28;19909;-16
2023/05/20 05:26:54;;;;;;;;;;;;;;;;;;5035686;28;19967;-15
2023/05/20 05:29:20;;;;;;;;;;;;;;;;;;5035702;28;19928;-15
2023/05/20 05:31:46;;;;;;;;;;;;;;;;;;5035817;28;19909;-17
2023/05/20 05:34:12;;;;;;;;;;;;;;;;;;5035873;28;19920;-15
2023/05/20 05:36:38;;;;;;;;;;;;;;;;;;5035477;28;19917;-15
2023/05/20 05:39:04;;;;;;;;;;;;;;;;;;5035513;28;20410;-15
2023/05/20 05:41:30;;;;;;;;;;;;;;;;;;5035496;28;20255;-16
2023/05/20 05:43:56;;;;;;;;;;;;;;;;;;5035409;28;19909;-15
2023/05/20 05:46:22;;;;;;;;;;;;;;;;;;5034392;28;20299;-16
2023/05/20 05:48:49;;;;;;;;;;;;;;;;;;5035787;28;20340;-14
2023/05/20 05:51:15;;;;;;;;;;;;;;;;;;5035289;28;19913;-15
2023/05/20 05:53:41;;;;;;;;;;;;;;;;;;5035640;28;19924;-15
2023/05/20 05:56:07;;;;;;;;;;;;;;;;;;5035106;28;19924;-15
2023/05/20 05:58:33;;;;;;;;;;;;;;;;;;5035132;28;19921;-15
2023/05/20 06:00:59;;;;;;;;;;;;;;;;;;5035138;28;19927;-15
2023/05/20 06:03:25;;;;;;;;;;;;;;;;;;5034833;28;19980;-16
2023/05/20 06:05:51;;;;;;;;;;;;;;;;;;5035043;28;19916;-16
2023/05/20 06:08:17;;;;;;;;;;;;;;;;;;5035260;28;19909;-15
2023/05/20 06:10:43;;;;;;;;;;;;;;;;;;5035249;28;19963;-15
2023/05/20 06:13:09;;;;;;;;;;;;;;;;;;5034857;28;19909;-17
2023/05/20 06:15:35;;;;;;;;;;;;;;;;;;5035112;28;19909;-16
2023/05/20 06:18:01;;;;;;;;;;;;;;;;;;5034885;28;19913;-16
2023/05/20 06:20:27;;;;;;;;;;;;;;;;;;5034881;28;20190;-15
2023/05/20 06:22:53;;;;;;;;;;;;;;;;;;5034803;28;19909;-15
2023/05/20 06:25:19;;;;;;;;;;;;;;;;;;5035131;28;19913;-16
2023/05/20 06:27:45;;;;;;;;;;;;;;;;;;5034467;28;19996;-16
2023/05/20 06:30:11;;;;;;;;;;;;;;;;;;5033775;28;20283;-15
2023/05/20 06:32:37;;;;;;;;;;;;;;;;;;5034693;28;20396;-15
2023/05/20 06:35:03;;;;;;;;;;;;;;;;;;5034797;28;19909;-17
2023/05/20 06:37:29;;;;;;;;;;;;;;;;;;5034595;28;20259;-14
2023/05/20 06:39:55;;;;;;;;;;;;;;;;;;5034698;28;19909;-14
2023/05/20 06:42:21;;;;;;;;;;;;;;;;;;5034873;28;20058;-13
2023/05/20 06:44:47;;;;;;;;;;;;;;;;;;5034669;28;19952;-15
2023/05/20 06:47:13;;;;;;;;;;;;;;;;;;5034903;28;19921;-14
2023/05/20 06:49:38;;;;;;;;;;;;;;;;;;5034887;28;19913;-14
2023/05/20 06:52:04;;;;;;;;;;;;;;;;;;5034520;28;19910;-15
2023/05/20 06:54:33;;;;;;;;;;;;;;;;;;5034823;28;19913;-13
2023/05/20 06:56:58;;;;;;;;;;;;;;;;;;5034530;28;19917;-13
2023/05/20 06:59:24;;;;;;;;;;;;;;;;;;5034479;28;19909;-14
2023/05/20 07:01:50;;;;;;;;;;;;;;;;;;5034681;28;19916;-13
2023/05/20 07:04:16;;;;;;;;;;;;;;;;;;5034416;28;19921;-13
2023/05/20 07:06:42;;;;;;;;;;;;;;;;;;5034443;28;20340;-14
2023/05/20 07:09:08;;;;;;;;;;;;;;;;;;5034664;28;20047;-14
2023/05/20 07:11:34;;;;;;;;;;;;;;;;;;5034418;28;19920;-14
2023/05/20 07:14:00;;;;;;;;;;;;;;;;;;5034342;28;19909;-13
2023/05/20 07:16:26;;;;;;;;;;;;;;;;;;5034818;28;20232;-14
2023/05/20 07:18:52;;;;;;;;;;;;;;;;;;5034366;28;19916;-12
2023/05/20 07:21:18;;;;;;;;;;;;;;;;;;5033604;28;19909;-14
2023/05/20 07:23:45;;;;;;;;;;;;;;;;;;5034462;28;19917;-13
2023/05/20 07:26:10;;;;;;;;;;;;;;;;;;5034289;28;19909;-13
2023/05/20 07:28:36;;;;;;;;;;;;;;;;;;5034226;28;19920;-14
2023/05/20 07:31:02;;;;;;;;;;;;;;;;;;5034156;28;19928;-13
2023/05/20 07:33:28;;;;;;;;;;;;;;;;;;5034166;28;19916;-12
2023/05/20 07:35:54;;;;;;;;;;;;;;;;;;5034220;28;20252;-14
2023/05/20 07:38:20;;;;;;;;;;;;;;;;;;5034142;28;19920;-14
2023/05/20 07:40:46;;;;;;;;;;;;;;;;;;5037571;28;20316;-14
2023/05/20 07:43:12;;;;;;;;;;;;;;;;;;5037895;28;20320;-14
2023/05/20 07:45:38;;;;;;;;;;;;;;;;;;5037676;28;19909;-14
2023/05/20 07:48:04;;;;;;;;;;;;;;;;;;5037644;28;20030;-13
2023/05/20 07:50:30;;;;;;;;;;;;;;;;;;5037819;28;19909;-14
2023/05/20 07:52:56;;;;;;;;;;;;;;;;;;5037519;28;19939;-14
2023/05/20 07:55:22;;;;;;;;;;;;;;;;;;5037463;28;19913;-14
2023/05/20 07:57:48;;;;;;;;;;;;;;;;;;5037324;28;19913;-14
2023/05/20 08:00:14;;;;;;;;;;;;;;;;;;5037708;28;19909;-14
2023/05/20 08:02:40;;;;;;;;;;;;;;;;;;5037180;28;19913;-15
2023/05/20 08:05:07;;;;;;;;;;;;;;;;;;5037292;28;20406;-15
2023/05/20 08:07:33;;;;;;;;;;;;;;;;;;5037300;28;19967;-14
2023/05/20 08:09:59;;;;;;;;;;;;;;;;;;5037246;28;19913;-12
2023/05/20 08:12:25;;;;;;;;;;;;;;;;;;5037149;28;19920;-13
2023/05/20 08:14:51;;;;;;;;;;;;;;;;;;5037157;28;19909;-14
2023/05/20 08:17:17;;;;;;;;;;;;;;;;;;5036008;28;20004;-16
2023/05/20 08:19:43;;;;;;;;;;;;;;;;;;5037013;28;19944;-15
2023/05/20 08:22:09;;;;;;;;;;;;;;;;;;5036924;28;19921;-15
2023/05/20 08:24:35;;;;;;;;;;;;;;;;;;5037022;28;19909;-14
2023/05/20 08:27:01;;;;;;;;;;;;;;;;;;5036857;28;19909;-14
2023/05/20 08:29:27;;;;;;;;;;;;;;;;;;5036892;28;19917;-12
2023/05/20 08:31:53;;;;;;;;;;;;;;;;;;5036997;28;20003;-14
2023/05/20 08:34:19;;;;;;;;;;;;;;;;;;5036759;28;19912;-14
2023/05/20 08:36:45;;;;;;;;;;;;;;;;;;5036748;28;19917;-14
2023/05/20 08:39:11;;;;;;;;;;;;;;;;;;5036658;28;20249;-14
2023/05/20 08:41:37;;;;;;;;;;;;;;;;;;5037124;28;20336;-13
2023/05/20 08:44:03;;;;;;;;;;;;;;;;;;5036545;28;19916;-14
2023/05/20 08:46:29;;;;;;;;;;;;;;;;;;5035502;28;20318;-14
2023/05/20 08:48:55;;;;;;;;;;;;;;;;;;5036519;28;19932;-14
2023/05/20 08:51:22;;;;;;;;;;;;;;;;;;5036274;28;20323;-14
2023/05/20 08:53:48;;;;;;;;;;;;;;;;;;5036653;28;19909;-14
2023/05/20 08:56:14;;;;;;;;;;;;;;;;;;5035240;28;19920;-14
2023/05/20 08:58:41;;;;;;;;;;;;;;;;;;5036589;28;19909;-13
2023/05/20 09:01:08;;;;;;;;;;;;;;;;;;5036304;28;19909;-13
2023/05/20 09:03:34;;;;;;;;;;;;;;;;;;5035931;28;19960;-14
2023/05/20 09:06:00;;;;;;;;;;;;;;;;;;5036377;28;19920;-14
2023/05/20 09:08:26;;;;;;;;;;;;;;;;;;5036143;28;19913;-14
2023/05/20 09:10:53;;;;;;;;;;;;;;;;;;5036265;28;19910;-14
2023/05/20 09:13:19;;;;;;;;;;;;;;;;;;5036178;28;20299;-14
2023/05/20 09:15:45;;;;;;;;;;;;;;;;;;5036269;28;20293;-21
2023/05/20 09:18:11;;;;;;;;;;;;;;;;;;5035824;28;19978;-14
2023/05/20 09:20:37;;;;;;;;;;;;;;;;;;5036394;28;19963;-14
2023/05/20 09:23:03;;;;;;;;;;;;;;;;;;5036001;28;20000;-14
2023/05/20 09:25:29;;;;;;;;;;;;;;;;;;5034782;28;19948;-13
2023/05/20 09:27:55;;;;;;;;;;;;;;;;;;5035742;28;19909;-14
2023/05/20 09:30:21;;;;;;;;;;;;;;;;;;5035705;28;19909;-14
2023/05/20 09:32:46;;;;;;;;;;;;;;;;;;5035562;28;19909;-14
2023/05/20 09:35:13;;;;;;;;;;;;;;;;;;5035582;28;19920;-14
2023/05/20 09:37:39;;;;;;;;;;;;;;;;;;5035792;28;20240;-14
2023/05/20 09:40:05;;;;;;;;;;;;;;;;;;5036027;28;19909;-14
2023/05/20 09:42:31;;;;;;;;;;;;;;;;;;5035434;28;19910;-14
2023/05/20 09:44:57;;;;;;;;;;;;;;;;;;5035479;28;19920;-12
2023/05/20 09:47:24;;;;;;;;;;;;;;;;;;5035369;28;19909;-13
2023/05/20 09:49:50;;;;;;;;;;;;;;;;;;5035360;28;19936;-14
2023/05/20 09:52:16;;;;;;;;;;;;;;;;;;5035546;28;20312;-14
2023/05/20 09:54:42;;;;;;;;;;;;;;;;;;5035272;28;19932;-14
2023/05/20 09:57:08;;;;;;;;;;;;;;;;;;5035156;28;19982;-14
2023/05/20 09:59:34;;;;;;;;;;;;;;;;;;5035195;28;19947;-14
2023/05/20 10:02:00;;;;;;;;;;;;;;;;;;5034471;28;19909;-14
2023/05/20 10:04:26;;;;;;;;;;;;;;;;;;5034938;28;19925;-12
2023/05/20 10:06:52;;;;;;;;;;;;;;;;;;5035377;28;19909;-14
2023/05/20 10:09:18;;;;;;;;;;;;;;;;;;5035395;28;20308;-14
2023/05/20 10:11:44;;;;;;;;;;;;;;;;;;5035105;28;19909;-14
2023/05/20 10:14:10;;;;;;;;;;;;;;;;;;5034941;28;19915;-14
2023/05/20 10:16:36;;;;;;;;;;;;;;;;;;5034883;28;20347;-13
2023/05/20 10:19:02;;;;;;;;;;;;;;;;;;5034904;28;19913;-14
2023/05/20 10:21:28;;;;;;;;;;;;;;;;;;5034918;28;20250;-13
2023/05/20 10:23:54;;;;;;;;;;;;;;;;;;5034797;28;19913;-13
2023/05/20 10:26:21;;;;;;;;;;;;;;;;;;5034822;28;19910;-14
2023/05/20 10:28:47;;;;;;;;;;;;;;;;;;5034809;28;19917;-13
2023/05/20 10:31:13;;;;;;;;;;;;;;;;;;5034796;28;19909;-14
2023/05/20 10:33:39;;;;;;;;;;;;;;;;;;5034715;28;20237;-13
2023/05/20 10:36:04;;;;;;;;;;;;;;;;;;5034786;28;20367;-13
2023/05/20 10:38:30;;;;;;;;;;;;;;;;;;5034657;28;20245;-14
2023/05/20 10:40:58;;;;;;;;;;;;;;;;;;5035207;28;20328;-13
2023/05/20 10:43:24;;;;;;;;;;;;;;;;;;5034637;28;19927;-14
2023/05/20 10:45:50;;;;;;;;;;;;;;;;;;5034630;28;20135;-15
2023/05/20 10:48:16;;;;;;;;;;;;;;;;;;5034906;28;19920;-13
2023/05/20 10:50:42;;;;;;;;;;;;;;;;;;5034860;28;20355;-14
2023/05/20 10:53:08;;;;;;;;;;;;;;;;;;5034560;28;20255;-14
2023/05/20 10:55:34;;;;;;;;;;;;;;;;;;5034835;28;20344;-13
2023/05/20 10:58:00;;;;;;;;;;;;;;;;;;5034454;28;19913;-13
2023/05/20 11:00:26;;;;;;;;;;;;;;;;;;5035067;28;19975;-13
2023/05/20 11:02:52;;;;;;;;;;;;;;;;;;5034718;28;19909;-14
2023/05/20 11:05:18;;;;;;;;;;;;;;;;;;5034533;28;19913;-13
2023/05/20 11:07:44;;;;;;;;;;;;;;;;;;5034443;28;20358;-13
2023/05/20 11:10:10;;;;;;;;;;;;;;;;;;5034443;28;20205;-13
2023/05/20 11:12:36;;;;;;;;;;;;;;;;;;5034572;28;19917;-13
2023/05/20 11:15:02;;;;;;;;;;;;;;;;;;5038176;28;19909;-13
2023/05/20 11:17:28;;;;;;;;;;;;;;;;;;5038147;28;20026;-14
2023/05/20 11:19:54;;;;;;;;;;;;;;;;;;5038626;28;19916;-15
2023/05/20 11:22:20;;;;;;;;;;;;;;;;;;5038048;28;19909;-13
2023/05/20 11:24:46;;;;;;;;;;;;;;;;;;5038282;28;20120;-14
2023/05/20 11:27:12;;;;;;;;;;;;;;;;;;5037065;28;20035;-13
2023/05/20 11:29:38;;;;;;;;;;;;;;;;;;5038158;28;19916;-14
2023/05/20 11:32:04;;;;;;;;;;;;;;;;;;5037834;28;19915;-14
2023/05/20 11:34:30;;;;;;;;;;;;;;;;;;5038138;28;19909;-14
2023/05/20 11:36:56;;;;;;;;;;;;;;;;;;5037745;28;20000;-13
2023/05/20 11:39:22;;;;;;;;;;;;;;;;;;5037787;28;19933;-14
2023/05/20 11:41:48;;;;;;;;;;;;;;;;;;5037662;28;19909;-15
2023/05/20 11:44:14;;;;;;;;;;;;;;;;;;5037699;28;19910;-13
2023/05/20 11:46:40;;;;;;;;;;;;;;;;;;5037687;28;20023;-13
2023/05/20 11:49:07;;;;;;;;;;;;;;;;;;5037628;28;20249;-15
2023/05/20 11:51:33;;;;;;;;;;;;;;;;;;5037574;28;19999;-13
2023/05/20 11:54:00;;;;;;;;;;;;;;;;;;5037432;28;19960;-14
2023/05/20 11:56:26;;;;;;;;;;;;;;;;;;5037434;28;19920;-13
2023/05/20 11:58:52;;;;;;;;;;;;;;;;;;5037443;28;19909;-14
2023/05/20 12:01:17;;;;;;;;;;;;;;;;;;5037433;28;20247;-14
2023/05/20 12:03:43;;;;;;;;;;;;;;;;;;5037214;28;20241;-14
2023/05/20 12:06:09;;;;;;;;;;;;;;;;;;5037785;28;20338;-14
2023/05/20 12:08:35;;;;;;;;;;;;;;;;;;5037298;28;20216;-14
2023/05/20 12:11:01;;;;;;;;;;;;;;;;;;5037262;28;20012;-13
2023/05/20 12:13:27;;;;;;;;;;;;;;;;;;5037117;28;19928;-13
2023/05/20 12:15:53;;;;;;;;;;;;;;;;;;5037389;28;19909;-14
2023/05/20 12:18:19;;;;;;;;;;;;;;;;;;5037260;28;20003;-14
2023/05/20 12:20:45;;;;;;;;;;;;;;;;;;5037043;28;19959;-14
2023/05/20 12:23:11;;;;;;;;;;;;;;;;;;5037168;28;19920;-15
2023/05/20 12:25:37;;;;;;;;;;;;;;;;;;5036352;28;19920;-13
2023/05/20 12:28:03;;;;;;;;;;;;;;;;;;5036919;28;19909;-15
2023/05/20 12:30:29;;;;;;;;;;;;;;;;;;5037387;28;19916;-15
2023/05/20 12:32:55;;;;;;;;;;;;;;;;;;5036801;28;19909;-16
2023/05/20 12:35:21;;;;;;;;;;;;;;;;;;5037365;28;19917;-16
2023/05/20 12:37:48;;;;;;;;;;;;;;;;;;5036675;28;19920;-16
2023/05/20 12:40:14;;;;;;;;;;;;;;;;;;5036694;28;19920;-15
2023/05/20 12:42:40;;;;;;;;;;;;;;;;;;5036548;28;20256;-15
2023/05/20 12:45:06;;;;;;;;;;;;;;;;;;5035538;28;19919;-14
2023/05/20 12:47:32;;;;;;;;;;;;;;;;;;5036577;28;19993;-16
2023/05/20 12:49:58;;;;;;;;;;;;;;;;;;5036690;28;19960;-16
2023/05/20 12:52:24;;;;;;;;;;;;;;;;;;5036620;28;19909;-16
2023/05/20 12:54:50;;;;;;;;;;;;;;;;;;5036610;28;19933;-16
2023/05/20 12:57:17;;;;;;;;;;;;;;;;;;5036291;28;19917;-15
2023/05/20 12:59:43;;;;;;;;;;;;;;;;;;5036364;28;20367;-15
2023/05/20 13:02:09;;;;;;;;;;;;;;;;;;5035176;28;19909;-14
2023/05/20 13:04:35;;;;;;;;;;;;;;;;;;5036103;28;19983;-16
2023/05/20 13:07:01;;;;;;;;;;;;;;;;;;5036136;28;20004;-15
2023/05/20 13:09:27;;;;;;;;;;;;;;;;;;5035114;28;19909;-17
2023/05/20 13:11:53;;;;;;;;;;;;;;;;;;5035982;28;19920;-16
2023/05/20 13:14:20;;;;;;;;;;;;;;;;;;5036015;28;19909;-15
2023/05/20 13:16:46;;;;;;;;;;;;;;;;;;5035939;28;19917;-14
2023/05/20 13:19:12;;;;;;;;;;;;;;;;;;5035880;28;19919;-14
2023/05/20 13:21:38;;;;;;;;;;;;;;;;;;5036134;28;19917;-12
2023/05/20 13:24:04;;;;;;;;;;;;;;;;;;5035774;28;19909;-13
2023/05/20 13:26:30;;;;;;;;;;;;;;;;;;5035766;28;19917;-14
2023/05/20 13:28:56;;;;;;;;;;;;;;;;;;5036288;28;20007;-13
2023/05/20 13:31:22;;;;;;;;;;;;;;;;;;5035726;28;20301;-14
2023/05/20 13:33:48;;;;;;;;;;;;;;;;;;5035603;28;19909;-14
2023/05/20 13:36:13;;;;;;;;;;;;;;;;;;5035252;28;19952;-13
2023/05/20 13:38:40;;;;;;;;;;;;;;;;;;5035527;28;20301;-14
2023/05/20 13:41:06;;;;;;;;;;;;;;;;;;5035818;28;20082;-13
2023/05/20 13:43:32;;;;;;;;;;;;;;;;;;5035480;28;20267;-14
2023/05/20 13:45:57;;;;;;;;;;;;;;;;;;5035983;28;19909;-13
2023/05/20 13:48:23;;;;;;;;;;;;;;;;;;5034384;28;19909;-14
2023/05/20 13:50:49;;;;;;;;;;;;;;;;;;5035670;28;19916;-14
2023/05/20 13:53:15;;;;;;;;;;;;;;;;;;5035267;28;19909;-13
2023/05/20 13:55:41;;;;;;;;;;;;;;;;;;5035335;28;19952;-13
2023/05/20 13:58:10;;;;;;;;;;;;;;;;;;5035712;28;19992;-13
2023/05/20 14:00:36;;;;;;;;;;;;;;;;;;5035501;28;20005;-14
2023/05/20 14:03:07;;;;;;;;;;;;;;;;;;5034872;28;19917;-14
2023/05/20 14:05:33;;;;;;;;;;;;;;;;;;5034974;28;20256;-14
2023/05/20 14:07:59;;;;;;;;;;;;;;;;;;5035338;28;19909;-14
2023/05/20 14:10:25;;;;;;;;;;;;;;;;;;5035599;28;19919;-14
2023/05/20 14:12:51;;;;;;;;;;;;;;;;;;5034963;28;19913;-14
2023/05/20 14:15:17;;;;;;;;;;;;;;;;;;5035259;28;19909;-14
2023/05/20 14:17:43;;;;;;;;;;;;;;;;;;5034924;28;19920;-13
2023/05/20 14:20:09;;;;;;;;;;;;;;;;;;5034897;28;19909;-13
2023/05/20 14:22:35;;;;;;;;;;;;;;;;;;5034822;28;19978;-14
2023/05/20 14:25:01;;;;;;;;;;;;;;;;;;5035113;28;19909;-13
2023/05/20 14:27:27;;;;;;;;;;;;;;;;;;5033873;28;20259;-13
2023/05/20 14:29:53;;;;;;;;;;;;;;;;;;5035085;28;19909;-14
2023/05/20 14:32:19;;;;;;;;;;;;;;;;;;5034706;28;19909;-13
2023/05/20 14:34:45;;;;;;;;;;;;;;;;;;5035023;28;19948;-12
2023/05/20 14:37:11;;;;;;;;;;;;;;;;;;5034645;28;19996;-13
2023/05/20 14:39:37;;;;;;;;;;;;;;;;;;5034713;28;19983;-15
2023/05/20 14:42:03;;;;;;;;;;;;;;;;;;5034604;28;19919;-14
2023/05/20 14:44:28;;;;;;;;;;;;;;;;;;5034670;28;20003;-14
2023/05/20 14:46:54;;;;;;;;;;;;;;;;;;5035145;28;19959;-14
2023/05/20 14:49:20;;;;;;;;;;;;;;;;;;5038059;28;19909;-14
2023/05/20 14:51:46;;;;;;;;;;;;;;;;;;5038622;28;19913;-13
2023/05/20 14:54:15;;;;;;;;;;;;;;;;;;5038656;28;19909;-13
2023/05/20 14:56:41;;;;;;;;;;;;;;;;;;5037574;28;20383;-14
2023/05/20 14:59:08;;;;;;;;;;;;;;;;;;5038537;28;19917;-13
2023/05/20 15:01:34;;;;;;;;;;;;;;;;;;5039121;28;19919;-14
2023/05/20 15:04:00;;;;;;;;;;;;;;;;;;5038227;28;19921;-15
2023/05/20 15:06:26;;;;;;;;;;;;;;;;;;5038683;28;19913;-15
2023/05/20 15:08:52;;;;;;;;;;;;;;;;;;5038381;28;19909;-13
2023/05/20 15:11:18;;;;;;;;;;;;;;;;;;5038331;28;19996;-13
2023/05/20 15:13:45;;;;;;;;;;;;;;;;;;5038249;28;19960;-13
2023/05/20 15:16:11;;;;;;;;;;;;;;;;;;5038253;28;19913;-14
2023/05/20 15:18:37;;;;;;;;;;;;;;;;;;5038647;28;20317;-14
2023/05/20 15:21:03;;;;;;;;;;;;;;;;;;5037146;28;20360;-13
2023/05/20 15:23:29;;;;;;;;;;;;;;;;;;5038098;28;20360;-14
2023/05/20 15:25:57;;;;;;;;;;;;;;;;;;5038099;28;20252;-13
2023/05/20 15:28:23;;;;;;;;;;;;;;;;;;5038029;28;20004;-13
2023/05/20 15:30:49;;;;;;;;;;;;;;;;;;5037986;28;19963;-13
2023/05/20 15:33:15;;;;;;;;;;;;;;;;;;5037958;28;19920;-13
2023/05/20 15:35:40;;;;;;;;;;;;;;;;;;5036852;28;19913;-14
2023/05/20 15:38:06;;;;;;;;;;;;;;;;;;5037776;28;20075;-14
2023/05/20 15:40:32;;;;;;;;;;;;;;;;;;5037796;28;19916;-14
2023/05/20 15:42:59;;;;;;;;;;;;;;;;;;5037756;28;19970;-13
2023/05/20 15:45:25;;;;;;;;;;;;;;;;;;5037723;28;19984;-14
2023/05/20 15:47:51;;;;;;;;;;;;;;;;;;5037652;28;20029;-20
2023/05/20 15:50:17;;;;;;;;;;;;;;;;;;5037894;28;19916;-13
2023/05/20 15:52:43;;;;;;;;;;;;;;;;;;5037522;28;19909;-14
2023/05/20 15:55:09;;;;;;;;;;;;;;;;;;5037565;28;19921;-14
2023/05/20 15:57:35;;;;;;;;;;;;;;;;;;5037499;28;20319;-13
2023/05/20 16:00:04;;;;;;;;;;;;;;;;;;5036963;28;19909;-14
2023/05/20 16:02:31;;;;;;;;;;;;;;;;;;5037376;28;20027;-12
2023/05/20 16:04:57;;;;;;;;;;;;;;;;;;5037184;28;19982;-13
2023/05/20 16:07:23;;;;;;;;;;;;;;;;;;5037279;28;20283;-13
2023/05/20 16:09:49;;;;;;;;;;;;;;;;;;5037767;28;20351;-14
2023/05/20 16:12:15;;;;;;;;;;;;;;;;;;5037198;28;19909;-14
2023/05/20 16:14:43;;;;;;;;;;;;;;;;;;5037706;28;19917;-14
2023/05/20 16:17:09;;;;;;;;;;;;;;;;;;5037054;28;20006;-14
2023/05/20 16:19:35;;;;;;;;;;;;;;;;;;5037120;28;19921;-13
2023/05/20 16:22:01;;;;;;;;;;;;;;;;;;5036962;28;19909;-13
2023/05/20 16:24:27;;;;;;;;;;;;;;;;;;5037267;28;19910;-13
2023/05/20 16:26:53;;;;;;;;;;;;;;;;;;5036952;28;19913;-14
2023/05/20 16:29:19;;;;;;;;;;;;;;;;;;5037498;28;19964;-14
2023/05/20 16:31:45;;;;;;;;;;;;;;;;;;5036898;28;19968;-14
2023/05/20 16:34:11;;;;;;;;;;;;;;;;;;5037321;28;19909;-14
2023/05/20 16:36:37;;;;;;;;;;;;;;;;;;5036958;28;19913;-12